Time;durP1;ratioP1;P1;durP2;ratioP2;P2;SDS_P1;SDS_P2;PMS_P1;PMS_P2;Temp;Humidity;BMP_temperature;BMP_pressure;BME280_temperature;BME280_humidity;BME280_pressure;Samples;Min_cycle;Max_cycle;Signal;HPM_P1;HPM_P2
2023/02/08 00:02:07;;;;;;;5.07;4.65;;;;;;;;;;4951528;29;20035;-76
2023/02/08 00:04:33;;;;;;;6.30;5.70;;;;;;;;;;4951752;29;20086;-76
2023/02/08 00:06:59;;;;;;;7.97;7.05;;;;;;;;;;4951315;29;20685;-76
2023/02/08 00:09:26;;;;;;;7.20;6.50;;;;;;;;;;4951560;28;20151;-77
2023/02/08 00:11:51;;;;;;;8.27;7.55;;;;;;;;;;4949903;29;20139;-78
2023/02/08 00:14:18;;;;;;;6.07;5.47;;;;;;;;;;4952500;29;20510;-77
2023/02/08 00:16:44;;;;;;;7.25;5.60;;;;;;;;;;4951663;29;20055;-77
2023/02/08 00:19:10;;;;;;;6.28;5.72;;;;;;;;;;4951395;29;20039;-78
2023/02/08 00:21:36;;;;;;;8.40;7.30;;;;;;;;;;4951448;29;20032;-78
2023/02/08 00:24:02;;;;;;;6.60;6.00;;;;;;;;;;4951278;29;20038;-77
2023/02/08 00:26:28;;;;;;;9.57;7.80;;;;;;;;;;4951356;29;20069;-76
2023/02/08 00:28:54;;;;;;;9.55;8.63;;;;;;;;;;4953568;29;20488;-82
2023/02/08 00:31:20;;;;;;;6.72;6.00;;;;;;;;;;4956049;29;20482;-81
2023/02/08 00:33:46;;;;;;;6.45;5.93;;;;;;;;;;4954713;29;20130;-80
2023/02/08 00:36:12;;;;;;;8.70;7.97;;;;;;;;;;4952186;28;20383;-79
2023/02/08 00:38:40;;;;;;;9.73;8.05;;;;;;;;;;4952446;29;20034;-79
2023/02/08 00:41:07;;;;;;;12.45;7.57;;;;;;;;;;4937464;29;20047;-81
2023/02/08 00:43:33;;;;;;;5.72;5.22;;;;;;;;;;4952082;29;20082;-79
2023/02/08 00:45:59;;;;;;;3.60;3.40;;;;;;;;;;4949300;28;20078;-80
2023/02/08 00:48:26;;;;;;;7.53;6.93;;;;;;;;;;4943768;28;20041;-80
2023/02/08 00:51:08;;;;;;;7.18;6.57;;;;;;;;;;4965694;28;20034;-82
2023/02/08 00:53:37;;;;;;;5.50;5.07;;;;;;;;;;4967988;28;20041;-81
2023/02/08 00:56:04;;;;;;;5.18;4.78;;;;;;;;;;4994159;28;20066;-83
2023/02/08 00:58:31;;;;;;;5.22;4.80;;;;;;;;;;4996907;28;20011;-81
2023/02/08 01:00:57;;;;;;;5.82;5.32;;;;;;;;;;4996234;28;20155;-81
2023/02/08 01:03:23;;;;;;;6.18;5.68;;;;;;;;;;4992003;28;20031;-83
2023/02/08 01:05:50;;;;;;;6.68;5.80;;;;;;;;;;4962244;29;20019;-82
2023/02/08 01:08:18;;;;;;;6.72;6.18;;;;;;;;;;4978436;28;20040;-83
2023/02/08 01:10:44;;;;;;;5.68;5.28;;;;;;;;;;4964391;28;20034;-81
2023/02/08 01:13:10;;;;;;;7.15;5.60;;;;;;;;;;4962513;29;20059;-82
2023/02/08 01:15:36;;;;;;;7.95;7.18;;;;;;;;;;4962871;29;20344;-82
2023/02/08 01:18:02;;;;;;;6.65;6.15;;;;;;;;;;4943045;29;20043;-81
2023/02/08 01:20:29;;;;;;;11.35;7.63;;;;;;;;;;4959699;28;20066;-79
2023/02/08 01:22:55;;;;;;;6.25;5.85;;;;;;;;;;4943100;29;20038;-80
2023/02/08 01:25:21;;;;;;;6.13;5.63;;;;;;;;;;4943179;29;20134;-82
2023/02/08 01:27:47;;;;;;;7.80;7.00;;;;;;;;;;4960412;29;20574;-81
2023/02/08 01:30:13;;;;;;;11.13;6.78;;;;;;;;;;4942817;29;20486;-81
2023/02/08 01:32:39;;;;;;;5.10;4.65;;;;;;;;;;4959486;29;20127;-82
2023/02/08 01:35:05;;;;;;;9.38;7.35;;;;;;;;;;4958682;28;20038;-80
2023/02/08 01:37:31;;;;;;;6.18;5.57;;;;;;;;;;4927160;29;20039;-80
2023/02/08 01:39:57;;;;;;;5.85;5.20;;;;;;;;;;4961701;29;20027;-81
2023/02/08 01:42:23;;;;;;;7.32;6.72;;;;;;;;;;4962342;29;20126;-81
2023/02/08 01:45:08;;;;;;;5.03;4.55;;;;;;;;;;4962276;28;20105;-82
2023/02/08 01:47:34;;;;;;;10.13;7.93;;;;;;;;;;4944842;29;20047;-82
2023/02/08 01:50:01;;;;;;;8.02;7.40;;;;;;;;;;4963139;29;20110;-81
2023/02/08 01:52:27;;;;;;;5.70;5.28;;;;;;;;;;4927266;29;20074;-81
2023/02/08 01:55:03;;;;;;;5.22;4.82;;;;;;;;;;4961007;29;20086;-81
2023/02/08 01:57:29;;;;;;;8.77;7.68;;;;;;;;;;4943912;29;20520;-80
2023/02/08 01:59:59;;;;;;;6.50;5.90;;;;;;;;;;4943470;29;20122;-81
2023/02/08 02:02:25;;;;;;;8.40;7.55;;;;;;;;;;4960365;28;20046;-81
2023/02/08 02:04:52;;;;;;;9.02;8.15;;;;;;;;;;4960062;29;20059;-80
2023/02/08 02:07:18;;;;;;;5.05;4.65;;;;;;;;;;4959153;29;20505;-80
2023/02/08 02:09:45;;;;;;;6.82;5.43;;;;;;;;;;4940871;29;20864;-79
2023/02/08 02:12:11;;;;;;;5.43;4.70;;;;;;;;;;4955251;29;20498;-80
2023/02/08 02:14:37;;;;;;;8.25;7.10;;;;;;;;;;4963664;29;20031;-81
2023/02/08 02:17:04;;;;;;;8.50;5.18;;;;;;;;;;4932193;29;20358;-81
2023/02/08 02:19:30;;;;;;;6.53;6.03;;;;;;;;;;4968711;28;20617;-81
2023/02/08 02:21:56;;;;;;;6.90;6.25;;;;;;;;;;4951482;29;20050;-81
2023/02/08 02:24:42;;;;;;;7.95;7.15;;;;;;;;;;4969359;29;20038;-81
2023/02/08 02:27:08;;;;;;;7.97;5.32;;;;;;;;;;4952226;29;20047;-81
2023/02/08 02:29:53;;;;;;;9.98;7.35;;;;;;;;;;4970133;28;20090;-81
2023/02/08 02:32:30;;;;;;;5.82;5.35;;;;;;;;;;4951698;29;20046;-82
2023/02/08 02:35:07;;;;;;;5.93;5.43;;;;;;;;;;4968751;29;20062;-82
2023/02/08 02:37:52;;;;;;;4.50;4.10;;;;;;;;;;4952123;29;20110;-82
2023/02/08 02:40:33;;;;;;;5.88;5.28;;;;;;;;;;4951692;29;20035;-81
2023/02/08 02:46:04;;;;;;;6.25;5.65;;;;;;;;;;4966774;28;19926;-82
2023/02/08 02:48:49;;;;;;;6.43;5.60;;;;;;;;;;4965281;29;20102;-82
2023/02/08 02:51:18;;;;;;;9.95;8.90;;;;;;;;;;4970124;29;20036;-82
2023/02/08 02:53:54;;;;;;;5.97;5.45;;;;;;;;;;4972055;29;20039;-82
2023/02/08 02:56:25;;;;;;;6.40;5.85;;;;;;;;;;4938331;29;20040;-82
2023/02/08 02:58:52;;;;;;;8.23;7.15;;;;;;;;;;4953231;29;20046;-81
2023/02/08 03:01:24;;;;;;;5.90;5.40;;;;;;;;;;4953755;29;20031;-82
2023/02/08 03:03:51;;;;;;;4.82;4.40;;;;;;;;;;4968645;29;20031;-82
2023/02/08 03:06:27;;;;;;;5.72;5.28;;;;;;;;;;4967538;29;20111;-82
2023/02/08 03:08:54;;;;;;;4.38;3.97;;;;;;;;;;4950154;29;20039;-82
2023/02/08 03:11:30;;;;;;;7.47;6.75;;;;;;;;;;4966701;28;20537;-82
2023/02/08 03:14:03;;;;;;;7.07;6.38;;;;;;;;;;4951191;29;20102;-82
2023/02/08 03:16:47;;;;;;;7.05;6.35;;;;;;;;;;4951860;29;20098;-81
2023/02/08 03:19:17;;;;;;;5.47;5.10;;;;;;;;;;4953147;28;20039;-82
2023/02/08 03:21:50;;;;;;;6.05;5.55;;;;;;;;;;4954889;29;20389;-82
2023/02/08 03:24:22;;;;;;;8.85;8.02;;;;;;;;;;4954769;29;20102;-82
2023/02/08 03:26:57;;;;;;;8.65;7.72;;;;;;;;;;4956183;29;20128;-83
2023/02/08 03:29:26;;;;;;;4.53;4.20;;;;;;;;;;4955540;29;20054;-82
2023/02/08 03:31:56;;;;;;;6.88;6.35;;;;;;;;;;4971011;29;20031;-80
2023/02/08 03:34:25;;;;;;;8.48;6.72;;;;;;;;;;4950744;29;20058;-81
2023/02/08 03:36:55;;;;;;;10.35;9.52;;;;;;;;;;4964703;29;20050;-81
2023/02/08 03:39:28;;;;;;;6.25;5.53;;;;;;;;;;4953737;29;20094;-82
2023/02/08 03:42:00;;;;;;;8.73;6.18;;;;;;;;;;4957561;29;20035;-82
2023/02/08 03:44:33;;;;;;;7.10;6.30;;;;;;;;;;4954633;29;20118;-82
2023/02/08 03:47:08;;;;;;;3.13;2.92;;;;;;;;;;4956252;29;20074;-82
2023/02/08 03:49:34;;;;;;;3.67;3.38;;;;;;;;;;4954723;29;20042;-81
2023/02/08 03:52:00;;;;;;;4.80;4.40;;;;;;;;;;4955180;29;20043;-83
2023/02/08 03:54:27;;;;;;;5.80;5.10;;;;;;;;;;4953916;29;20090;-82
2023/02/08 03:57:04;;;;;;;5.13;4.53;;;;;;;;;;4954092;29;20049;-82
2023/02/08 03:59:31;;;;;;;5.05;4.65;;;;;;;;;;4955119;29;20062;-82
2023/02/08 04:01:58;;;;;;;6.18;5.60;;;;;;;;;;4971575;29;20114;-82
2023/02/08 04:04:24;;;;;;;4.68;4.28;;;;;;;;;;4955410;29;20044;-82
2023/02/08 04:06:50;;;;;;;4.32;3.92;;;;;;;;;;4955068;29;20050;-84
2023/02/08 04:09:16;;;;;;;4.60;4.25;;;;;;;;;;4971858;29;20034;-83
2023/02/08 04:11:43;;;;;;;6.70;6.10;;;;;;;;;;4972860;29;20075;-82
2023/02/08 04:14:09;;;;;;;7.43;6.13;;;;;;;;;;4972094;29;20038;-82
2023/02/08 04:16:34;;;;;;;5.05;4.57;;;;;;;;;;4971764;29;20035;-82
2023/02/08 04:19:01;;;;;;;5.75;4.95;;;;;;;;;;4972287;28;20397;-82
2023/02/08 04:21:27;;;;;;;7.30;6.28;;;;;;;;;;4971414;29;20054;-83
2023/02/08 04:23:53;;;;;;;6.57;5.82;;;;;;;;;;4953391;29;20039;-81
2023/02/08 04:26:19;;;;;;;6.40;5.80;;;;;;;;;;4972275;29;20043;-85
2023/02/08 04:28:45;;;;;;;8.10;7.32;;;;;;;;;;4971991;28;20091;-83
2023/02/08 04:31:11;;;;;;;5.15;4.68;;;;;;;;;;4971255;29;20043;-83
2023/02/08 04:33:36;;;;;;;8.48;6.80;;;;;;;;;;4970132;28;20521;-83
2023/02/08 04:36:02;;;;;;;8.77;7.88;;;;;;;;;;4969754;28;20038;-82
2023/02/08 04:38:29;;;;;;;11.50;6.88;;;;;;;;;;4952567;29;20047;-82
2023/02/08 04:40:55;;;;;;;8.90;7.68;;;;;;;;;;4953672;29;20039;-84
2023/02/08 04:43:20;;;;;;;7.03;5.55;;;;;;;;;;4952822;29;20041;-83
2023/02/08 04:45:48;;;;;;;8.02;6.45;;;;;;;;;;4969188;28;20127;-82
2023/02/08 04:48:14;;;;;;;9.65;6.78;;;;;;;;;;4968930;29;20043;-81
2023/02/08 04:50:40;;;;;;;11.00;7.68;;;;;;;;;;4969826;28;20544;-83
2023/02/08 04:53:06;;;;;;;10.10;8.13;;;;;;;;;;4936735;29;20043;-82
2023/02/08 04:55:33;;;;;;;12.05;8.95;;;;;;;;;;4969546;29;20047;-83
2023/02/08 04:57:59;;;;;;;9.07;7.68;;;;;;;;;;4970186;29;20043;-82
2023/02/08 05:00:24;;;;;;;9.25;6.57;;;;;;;;;;4969626;28;20046;-82
2023/02/08 05:02:52;;;;;;;3.97;3.67;;;;;;;;;;4969650;28;20098;-81
2023/02/08 05:05:18;;;;;;;6.80;5.07;;;;;;;;;;4969952;29;20118;-82
2023/02/08 05:07:43;;;;;;;6.10;5.30;;;;;;;;;;4969834;28;20043;-82
2023/02/08 05:10:10;;;;;;;9.05;5.82;;;;;;;;;;4970064;29;20042;-82
2023/02/08 05:12:36;;;;;;;12.93;9.02;;;;;;;;;;4970299;29;20051;-82
2023/02/08 05:15:02;;;;;;;6.97;6.13;;;;;;;;;;4952606;29;20027;-81
2023/02/08 05:17:29;;;;;;;10.27;6.38;;;;;;;;;;4952137;29;20073;-81
2023/02/08 05:19:55;;;;;;;10.95;5.68;;;;;;;;;;4969305;28;20198;-82
2023/02/08 05:22:21;;;;;;;7.63;5.80;;;;;;;;;;4969540;29;20074;-81
2023/02/08 05:24:47;;;;;;;6.68;5.95;;;;;;;;;;4970589;28;20035;-83
2023/02/08 05:27:13;;;;;;;8.40;6.53;;;;;;;;;;4953894;29;20051;-82
2023/02/08 05:29:39;;;;;;;6.28;5.68;;;;;;;;;;4970656;29;20144;-82
2023/02/08 05:32:05;;;;;;;8.27;6.70;;;;;;;;;;4970673;28;20047;-83
2023/02/08 05:34:31;;;;;;;9.93;5.65;;;;;;;;;;4972450;28;20039;-82
2023/02/08 05:36:58;;;;;;;3.05;2.67;;;;;;;;;;4975464;28;20502;-82
2023/02/08 05:39:23;;;;;;;8.15;5.90;;;;;;;;;;4977969;28;20038;-82
2023/02/08 05:41:49;;;;;;;10.75;6.43;;;;;;;;;;4975352;28;20039;-80
2023/02/08 05:44:15;;;;;;;4.85;4.05;;;;;;;;;;4959078;29;20039;-82
2023/02/08 05:46:41;;;;;;;3.33;3.13;;;;;;;;;;4958877;29;20071;-82
2023/02/08 05:49:07;;;;;;;11.15;7.13;;;;;;;;;;4975650;29;20103;-82
2023/02/08 05:51:33;;;;;;;12.30;7.80;;;;;;;;;;4974737;29;20054;-82
2023/02/08 05:53:59;;;;;;;20.45;10.25;;;;;;;;;;4958722;29;20035;-82
2023/02/08 05:56:26;;;;;;;11.80;8.57;;;;;;;;;;4978597;29;20012;-82
2023/02/08 05:58:52;;;;;;;11.77;7.90;;;;;;;;;;4981007;28;20031;-81
2023/02/08 06:01:18;;;;;;;5.43;4.97;;;;;;;;;;4977179;28;20046;-82
2023/02/08 06:03:44;;;;;;;10.05;6.45;;;;;;;;;;4979342;28;20022;-82
2023/02/08 06:06:10;;;;;;;9.95;6.47;;;;;;;;;;4964565;28;20031;-80
2023/02/08 06:08:37;;;;;;;8.48;7.28;;;;;;;;;;4963214;28;20031;-82
2023/02/08 06:11:03;;;;;;;4.88;4.53;;;;;;;;;;4980887;28;20049;-81
2023/02/08 06:13:29;;;;;;;6.72;6.03;;;;;;;;;;4981041;28;20023;-82
2023/02/08 06:15:55;;;;;;;7.05;6.15;;;;;;;;;;4964207;28;20089;-82
2023/02/08 06:18:21;;;;;;;4.88;4.57;;;;;;;;;;4943971;29;20536;-82
2023/02/08 06:20:47;;;;;;;6.75;5.72;;;;;;;;;;4971995;28;20038;-82
2023/02/08 06:23:13;;;;;;;10.85;7.03;;;;;;;;;;4957237;29;20011;-83
2023/02/08 06:25:39;;;;;;;7.07;6.28;;;;;;;;;;4957996;29;20038;-82
2023/02/08 06:28:07;;;;;;;6.80;6.10;;;;;;;;;;4942642;29;20026;-83
2023/02/08 06:30:33;;;;;;;7.65;6.88;;;;;;;;;;4957966;29;20035;-82
2023/02/08 06:32:59;;;;;;;5.22;4.65;;;;;;;;;;4957343;29;20050;-82
2023/02/08 06:35:25;;;;;;;9.82;6.75;;;;;;;;;;4956526;29;20043;-82
2023/02/08 06:37:51;;;;;;;5.15;4.75;;;;;;;;;;4974541;28;20039;-82
2023/02/08 06:40:18;;;;;;;9.50;7.35;;;;;;;;;;4973745;28;20031;-82
2023/02/08 06:42:44;;;;;;;11.48;6.63;;;;;;;;;;4975270;29;20034;-82
2023/02/08 06:45:10;;;;;;;4.10;3.70;;;;;;;;;;4973847;28;20038;-81
2023/02/08 06:47:36;;;;;;;9.05;6.85;;;;;;;;;;4956063;29;20078;-83
2023/02/08 06:50:02;;;;;;;5.78;4.82;;;;;;;;;;4973734;29;20031;-82
2023/02/08 06:52:29;;;;;;;8.05;5.82;;;;;;;;;;4971503;29;20043;-82
2023/02/08 06:54:55;;;;;;;7.55;6.18;;;;;;;;;;4972403;28;20039;-82
2023/02/08 06:57:21;;;;;;;6.63;5.93;;;;;;;;;;4973155;29;20087;-83
2023/02/08 06:59:47;;;;;;;8.05;7.20;;;;;;;;;;4974297;29;20031;-82
2023/02/08 07:02:14;;;;;;;7.10;6.40;;;;;;;;;;4974312;29;20035;-82
2023/02/08 07:04:40;;;;;;;6.82;6.18;;;;;;;;;;4956261;29;20042;-82
2023/02/08 07:07:06;;;;;;;6.05;5.55;;;;;;;;;;4975822;29;20054;-83
2023/02/08 07:09:33;;;;;;;7.80;5.68;;;;;;;;;;4979152;28;20066;-80
2023/02/08 07:12:03;;;;;;;6.22;5.30;;;;;;;;;;4980076;28;20027;-81
2023/02/08 07:14:30;;;;;;;9.90;7.70;;;;;;;;;;4980098;28;20019;-82
2023/02/08 07:16:56;;;;;;;8.07;4.63;;;;;;;;;;4963495;28;20371;-81
2023/02/08 07:19:23;;;;;;;11.90;9.85;;;;;;;;;;4979828;28;20019;-82
2023/02/08 07:21:49;;;;;;;14.00;7.70;;;;;;;;;;4963192;28;20043;-82
2023/02/08 07:24:15;;;;;;;9.70;7.82;;;;;;;;;;4980048;28;20019;-82
2023/02/08 07:26:41;;;;;;;10.43;8.27;;;;;;;;;;4961056;28;20050;-82
2023/02/08 07:29:08;;;;;;;8.68;6.35;;;;;;;;;;4973085;29;20047;-83
2023/02/08 07:31:34;;;;;;;7.68;6.78;;;;;;;;;;4972484;29;20028;-81
2023/02/08 07:34:00;;;;;;;5.63;5.15;;;;;;;;;;4971616;29;20533;-82
2023/02/08 07:36:26;;;;;;;12.45;8.23;;;;;;;;;;4953233;29;20046;-82
2023/02/08 07:38:52;;;;;;;7.50;6.18;;;;;;;;;;4970708;29;20049;-81
2023/02/08 07:41:18;;;;;;;20.25;10.32;;;;;;;;;;4971343;28;20055;-82
2023/02/08 07:43:44;;;;;;;29.65;12.55;;;;;;;;;;4953423;29;20027;-82
2023/02/08 07:46:14;;;;;;;13.95;10.43;;;;;;;;;;4952485;29;20500;-81
2023/02/08 07:48:40;;;;;;;23.25;13.25;;;;;;;;;;4969589;29;20043;-82
2023/02/08 07:51:06;;;;;;;11.07;8.93;;;;;;;;;;4937336;29;20055;-82
2023/02/08 07:53:32;;;;;;;10.10;8.60;;;;;;;;;;4959106;29;20031;-81
2023/02/08 07:55:58;;;;;;;7.93;7.00;;;;;;;;;;4978487;28;20027;-81
2023/02/08 07:58:24;;;;;;;10.68;7.28;;;;;;;;;;4977878;28;20043;-81
2023/02/08 08:00:50;;;;;;;8.40;7.60;;;;;;;;;;4977012;29;20039;-77
2023/02/08 08:03:16;;;;;;;10.27;7.63;;;;;;;;;;4976763;29;20039;-82
2023/02/08 08:05:42;;;;;;;9.43;6.82;;;;;;;;;;4976425;28;20035;-82
2023/02/08 08:08:08;;;;;;;9.02;7.32;;;;;;;;;;4975499;29;20055;-83
2023/02/08 08:10:34;;;;;;;5.70;5.20;;;;;;;;;;4952508;29;20035;-82
2023/02/08 08:13:00;;;;;;;9.02;6.22;;;;;;;;;;4963645;29;20532;-82
2023/02/08 08:15:26;;;;;;;9.27;7.75;;;;;;;;;;4945652;29;20040;-83
2023/02/08 08:17:52;;;;;;;11.73;8.05;;;;;;;;;;4945141;29;20039;-83
2023/02/08 08:20:18;;;;;;;10.52;6.32;;;;;;;;;;4961954;29;20036;-82
2023/02/08 08:22:44;;;;;;;5.50;5.00;;;;;;;;;;4963117;28;20043;-84
2023/02/08 08:25:10;;;;;;;14.95;7.68;;;;;;;;;;4931405;29;20031;-79
2023/02/08 08:27:36;;;;;;;17.77;11.43;;;;;;;;;;4964566;29;20058;-82
2023/02/08 08:30:04;;;;;;;6.93;6.15;;;;;;;;;;4964444;29;20031;-82
2023/02/08 08:32:30;;;;;;;11.93;6.43;;;;;;;;;;4965944;29;20035;-81
2023/02/08 08:34:56;;;;;;;8.43;6.30;;;;;;;;;;4967827;29;20066;-81
2023/02/08 08:37:22;;;;;;;5.70;5.20;;;;;;;;;;4969004;29;20058;-83
2023/02/08 08:39:49;;;;;;;9.45;7.35;;;;;;;;;;4969147;29;20036;-82
2023/02/08 08:42:14;;;;;;;9.45;6.70;;;;;;;;;;4969793;29;20035;-82
2023/02/08 08:44:41;;;;;;;5.90;5.07;;;;;;;;;;4952926;29;20054;-82
2023/02/08 08:47:07;;;;;;;12.25;9.40;;;;;;;;;;4970493;28;20055;-82
2023/02/08 08:49:33;;;;;;;8.60;6.45;;;;;;;;;;4953681;29;20115;-82
2023/02/08 08:51:59;;;;;;;5.63;5.13;;;;;;;;;;4953562;29;20035;-82
2023/02/08 08:54:25;;;;;;;6.18;5.57;;;;;;;;;;4970027;29;20031;-81
2023/02/08 08:56:51;;;;;;;10.52;7.10;;;;;;;;;;4968935;29;20152;-82
2023/02/08 08:59:17;;;;;;;7.13;6.40;;;;;;;;;;4952573;29;20043;-83
2023/02/08 09:01:43;;;;;;;7.78;6.00;;;;;;;;;;4967780;29;20031;-82
2023/02/08 09:04:09;;;;;;;6.45;5.88;;;;;;;;;;4968254;29;20150;-83
2023/02/08 09:06:35;;;;;;;6.55;4.40;;;;;;;;;;4968905;28;20040;-82
2023/02/08 09:09:01;;;;;;;8.82;7.43;;;;;;;;;;4970603;28;20050;-82
2023/02/08 09:11:27;;;;;;;7.68;6.10;;;;;;;;;;4972497;28;20031;-83
2023/02/08 09:13:55;;;;;;;6.40;5.80;;;;;;;;;;4955344;29;20046;-82
2023/02/08 09:16:22;;;;;;;10.85;7.68;;;;;;;;;;4972293;29;20126;-83
2023/02/08 09:18:48;;;;;;;7.95;7.25;;;;;;;;;;4954262;29;20454;-82
2023/02/08 09:21:15;;;;;;;5.40;4.85;;;;;;;;;;4969333;28;20035;-82
2023/02/08 09:23:41;;;;;;;7.65;6.18;;;;;;;;;;4969353;29;20043;-82
2023/02/08 09:26:08;;;;;;;7.13;6.43;;;;;;;;;;4972480;29;20046;-83
2023/02/08 09:28:34;;;;;;;6.80;6.20;;;;;;;;;;4975735;28;20138;-84
2023/02/08 09:31:06;;;;;;;9.52;5.95;;;;;;;;;;4975878;28;20061;-83
2023/02/08 09:33:32;;;;;;;6.78;6.00;;;;;;;;;;4976817;29;20039;-81
2023/02/08 09:35:58;;;;;;;7.82;6.63;;;;;;;;;;4975333;29;20038;-82
2023/02/08 09:38:24;;;;;;;10.57;9.48;;;;;;;;;;4973911;29;20118;-83
2023/02/08 09:41:02;;;;;;;9.50;6.72;;;;;;;;;;4974461;29;20059;-84
2023/02/08 09:43:28;;;;;;;6.75;6.10;;;;;;;;;;4975313;29;20039;-82
2023/02/08 09:46:14;;;;;;;7.03;6.32;;;;;;;;;;4942897;28;20055;-83
2023/02/08 09:48:40;;;;;;;9.60;6.15;;;;;;;;;;4974322;28;20063;-82
2023/02/08 09:51:06;;;;;;;7.15;6.18;;;;;;;;;;4941929;29;20094;-82
2023/02/08 09:53:39;;;;;;;8.40;7.10;;;;;;;;;;4958240;29;20019;-81
2023/02/08 09:56:05;;;;;;;6.13;5.38;;;;;;;;;;4975381;29;20069;-82
2023/02/08 09:58:42;;;;;;;7.68;6.90;;;;;;;;;;4975065;29;20039;-81
2023/02/08 10:01:12;;;;;;;8.32;6.38;;;;;;;;;;4974344;29;20091;-82
2023/02/08 10:03:39;;;;;;;6.05;5.47;;;;;;;;;;4975361;29;20121;-83
2023/02/08 10:06:05;;;;;;;6.15;5.53;;;;;;;;;;4958837;29;20019;-82
2023/02/08 10:08:32;;;;;;;4.93;4.53;;;;;;;;;;4976204;29;20051;-81
2023/02/08 10:11:02;;;;;;;8.30;7.50;;;;;;;;;;4975765;29;20039;-83
2023/02/08 10:13:34;;;;;;;16.95;8.98;;;;;;;;;;4973638;29;20035;-82
2023/02/08 10:16:15;;;;;;;10.52;6.70;;;;;;;;;;4974119;29;20125;-82
2023/02/08 10:18:44;;;;;;;9.75;6.80;;;;;;;;;;4974196;29;20049;-83
2023/02/08 10:21:36;;;;;;;6.05;5.50;;;;;;;;;;4972846;28;20040;-84
2023/02/08 10:24:19;;;;;;;7.30;5.93;;;;;;;;;;4972230;29;20043;-83
2023/02/08 10:26:52;;;;;;;6.15;5.65;;;;;;;;;;4974802;29;20039;-83
2023/02/08 10:29:24;;;;;;;7.00;6.30;;;;;;;;;;4941940;29;20035;-83
2023/02/08 10:31:53;;;;;;;9.95;7.05;;;;;;;;;;4974647;28;20499;-83
2023/02/08 10:34:32;;;;;;;10.48;7.38;;;;;;;;;;4974066;28;20039;-82
2023/02/08 10:37:00;;;;;;;6.70;6.03;;;;;;;;;;4975273;29;20027;-84
2023/02/08 10:39:27;;;;;;;6.63;6.10;;;;;;;;;;4974921;29;20130;-83
2023/02/08 10:41:53;;;;;;;5.70;5.20;;;;;;;;;;4974689;28;20418;-83
2023/02/08 10:44:38;;;;;;;9.05;6.78;;;;;;;;;;4942546;29;20096;-83
2023/02/08 10:47:19;;;;;;;6.40;5.25;;;;;;;;;;4974383;29;20519;-84
2023/02/08 10:49:53;;;;;;;4.78;4.35;;;;;;;;;;4954736;29;20039;-83
2023/02/08 10:52:19;;;;;;;12.07;8.43;;;;;;;;;;4956397;29;20030;-83
2023/02/08 10:54:45;;;;;;;5.88;5.28;;;;;;;;;;4973909;29;20027;-83
2023/02/08 10:57:16;;;;;;;5.72;5.22;;;;;;;;;;4957661;29;20047;-83
2023/02/08 10:59:48;;;;;;;10.07;6.53;;;;;;;;;;4927456;29;20035;-83
2023/02/08 11:02:25;;;;;;;8.88;8.10;;;;;;;;;;4976499;29;20058;-81
2023/02/08 11:05:01;;;;;;;7.65;6.93;;;;;;;;;;4977220;29;20035;-83
2023/02/08 11:07:27;;;;;;;5.95;5.40;;;;;;;;;;4945150;29;20058;-83
2023/02/08 11:09:53;;;;;;;7.35;6.32;;;;;;;;;;4959831;29;20047;-82
2023/02/08 11:12:20;;;;;;;7.15;6.07;;;;;;;;;;4976870;29;20050;-83
2023/02/08 11:14:52;;;;;;;7.18;5.97;;;;;;;;;;4976743;29;20031;-84
2023/02/08 11:17:29;;;;;;;10.93;8.93;;;;;;;;;;4975353;29;20035;-83
2023/02/08 11:19:55;;;;;;;7.18;6.07;;;;;;;;;;4974841;29;20027;-84
2023/02/08 11:22:22;;;;;;;6.95;6.35;;;;;;;;;;4959189;29;20023;-82
2023/02/08 11:24:56;;;;;;;5.82;5.32;;;;;;;;;;4975964;29;20039;-83
2023/02/08 11:27:25;;;;;;;7.45;5.18;;;;;;;;;;4975618;29;20046;-83
2023/02/08 11:30:08;;;;;;;10.35;6.93;;;;;;;;;;4959860;29;20027;-81
2023/02/08 11:32:35;;;;;;;7.43;6.18;;;;;;;;;;4975589;28;20039;-83
2023/02/08 11:35:19;;;;;;;5.65;5.13;;;;;;;;;;4976573;29;20039;-85
2023/02/08 11:37:45;;;;;;;7.28;6.70;;;;;;;;;;4976244;28;20446;-83
2023/02/08 11:40:15;;;;;;;7.25;6.55;;;;;;;;;;4959164;29;20045;-81
2023/02/08 11:42:43;;;;;;;9.70;8.73;;;;;;;;;;4975157;28;20118;-83
2023/02/08 11:45:17;;;;;;;11.98;6.32;;;;;;;;;;4975661;29;20042;-84
2023/02/08 11:47:44;;;;;;;8.20;6.82;;;;;;;;;;4973157;29;20066;-83
2023/02/08 11:50:16;;;;;;;7.38;6.38;;;;;;;;;;4956936;29;20155;-83
2023/02/08 11:52:42;;;;;;;9.80;6.93;;;;;;;;;;4958580;29;20035;-83
2023/02/08 11:55:12;;;;;;;4.95;4.57;;;;;;;;;;4944728;29;20035;-83
2023/02/08 11:57:50;;;;;;;6.87;6.27;;;;;;;;;;4958896;29;20476;-83
2023/02/08 12:00:20;;;;;;;5.20;4.72;;;;;;;;;;4976884;28;20294;-82
2023/02/08 12:02:48;;;;;;;6.35;5.85;;;;;;;;;;4977027;29;20032;-83
2023/02/08 12:05:15;;;;;;;34.88;6.95;;;;;;;;;;4959508;29;20035;-82
2023/02/08 12:08:00;;;;;;;5.93;4.95;;;;;;;;;;4959122;29;20047;-84
2023/02/08 12:10:27;;;;;;;7.15;6.35;;;;;;;;;;4976761;29;20019;-83
2023/02/08 12:12:52;;;;;;;7.35;6.35;;;;;;;;;;4976138;29;20051;-83
2023/02/08 12:15:23;;;;;;;5.63;5.03;;;;;;;;;;4976358;28;20094;-84
2023/02/08 12:18:11;;;;;;;8.00;7.20;;;;;;;;;;4959835;29;20043;-83
2023/02/08 12:20:40;;;;;;;4.88;4.43;;;;;;;;;;4976497;29;20127;-83
2023/02/08 12:23:06;;;;;;;7.50;5.93;;;;;;;;;;4944534;29;20107;-83
2023/02/08 12:25:31;;;;;;;6.70;6.10;;;;;;;;;;4977032;28;20035;-80
2023/02/08 12:28:04;;;;;;;6.72;6.13;;;;;;;;;;4977095;29;20066;-83
2023/02/08 12:30:32;;;;;;;6.53;5.90;;;;;;;;;;4959797;29;20054;-84
2023/02/08 12:33:10;;;;;;;7.25;6.65;;;;;;;;;;4973802;29;20046;-85
2023/02/08 12:35:39;;;;;;;8.98;5.65;;;;;;;;;;4973198;29;20037;-82
2023/02/08 12:41:03;;;;;;;6.93;6.32;;;;;;;;;;4975101;29;20011;-84
2023/02/08 12:43:34;;;;;;;8.20;5.38;;;;;;;;;;4976497;29;20050;-83
2023/02/08 12:46:19;;;;;;;5.18;4.72;;;;;;;;;;4958281;29;20031;-82
2023/02/08 12:48:54;;;;;;;7.70;6.28;;;;;;;;;;4976457;29;20039;-84
2023/02/08 12:51:34;;;;;;;4.70;4.35;;;;;;;;;;4976998;29;20019;-84
2023/02/08 12:54:02;;;;;;;5.55;5.05;;;;;;;;;;4944361;29;20035;-84
2023/02/08 12:56:34;;;;;;;3.65;3.42;;;;;;;;;;4959734;29;20046;-83
2023/02/08 12:59:01;;;;;;;6.93;6.00;;;;;;;;;;4976269;28;20026;-84
2023/02/08 13:01:31;;;;;;;4.93;4.53;;;;;;;;;;4959084;29;20063;-84
2023/02/08 13:04:02;;;;;;;6.35;5.75;;;;;;;;;;4958184;29;20039;-84
2023/02/08 13:06:30;;;;;;;9.15;6.32;;;;;;;;;;4975141;29;20035;-83
2023/02/08 13:08:59;;;;;;;7.65;6.55;;;;;;;;;;4944032;29;20038;-84
2023/02/08 13:11:28;;;;;;;5.95;5.45;;;;;;;;;;4959452;29;20011;-84
2023/02/08 13:13:56;;;;;;;7.80;6.90;;;;;;;;;;4959495;29;20103;-84
2023/02/08 13:16:23;;;;;;;9.38;6.75;;;;;;;;;;4976369;29;20083;-84
2023/02/08 13:18:52;;;;;;;8.30;6.35;;;;;;;;;;4958652;29;20070;-84
2023/02/08 13:21:19;;;;;;;7.95;5.38;;;;;;;;;;4956206;29;20038;-85
2023/02/08 13:23:46;;;;;;;5.72;5.22;;;;;;;;;;4958811;29;20019;-85
2023/02/08 13:26:19;;;;;;;8.63;5.43;;;;;;;;;;4958933;29;20051;-83
2023/02/08 13:28:52;;;;;;;6.88;5.72;;;;;;;;;;4974893;29;20054;-84
2023/02/08 13:31:24;;;;;;;8.50;5.93;;;;;;;;;;4974666;29;20450;-83
2023/02/08 13:33:51;;;;;;;5.35;4.57;;;;;;;;;;4974931;29;20104;-83
2023/02/08 13:36:23;;;;;;;5.35;4.95;;;;;;;;;;4957883;29;20071;-84
2023/02/08 13:38:49;;;;;;;5.95;5.15;;;;;;;;;;4974941;29;20067;-84
2023/02/08 13:41:16;;;;;;;5.03;4.60;;;;;;;;;;4974533;28;20075;-83
2023/02/08 13:43:45;;;;;;;5.28;4.78;;;;;;;;;;4974954;29;20039;-83
2023/02/08 13:46:11;;;;;;;6.05;5.57;;;;;;;;;;4959370;29;20031;-83
2023/02/08 13:48:50;;;;;;;5.40;4.90;;;;;;;;;;4942734;29;20054;-83
2023/02/08 13:51:31;;;;;;;6.38;4.55;;;;;;;;;;4975065;28;20103;-83
2023/02/08 13:53:58;;;;;;;5.50;5.00;;;;;;;;;;4973774;28;20023;-83
2023/02/08 13:56:43;;;;;;;6.78;4.97;;;;;;;;;;4976591;28;20106;-83
2023/02/08 13:59:32;;;;;;;6.53;5.70;;;;;;;;;;4978263;29;20083;-84
2023/02/08 14:02:10;;;;;;;13.25;4.90;;;;;;;;;;4978050;29;20034;-84
2023/02/08 14:04:38;;;;;;;5.57;5.15;;;;;;;;;;4976668;28;20049;-83
2023/02/08 14:07:05;;;;;;;5.78;5.22;;;;;;;;;;4962270;29;20132;-83
2023/02/08 14:09:47;;;;;;;12.05;7.88;;;;;;;;;;4947094;29;20020;-84
2023/02/08 14:12:20;;;;;;;5.32;4.82;;;;;;;;;;4947476;29;20032;-81
2023/02/08 14:15:07;;;;;;;9.15;5.43;;;;;;;;;;4979158;29;20042;-84
2023/02/08 14:17:33;;;;;;;6.45;5.85;;;;;;;;;;4962467;29;20035;-82
2023/02/08 14:20:00;;;;;;;9.00;7.13;;;;;;;;;;4980008;28;20050;-83
2023/02/08 14:22:27;;;;;;;8.63;6.28;;;;;;;;;;4980787;28;20039;-84
2023/02/08 14:25:03;;;;;;;10.10;6.05;;;;;;;;;;4963471;29;20034;-80
2023/02/08 14:27:36;;;;;;;11.80;8.57;;;;;;;;;;4962117;29;20082;-83
2023/02/08 14:30:06;;;;;;;6.22;4.95;;;;;;;;;;4961474;29;20031;-83
2023/02/08 14:32:36;;;;;;;5.72;4.82;;;;;;;;;;4978304;29;20039;-82
2023/02/08 14:35:04;;;;;;;6.20;4.80;;;;;;;;;;4960856;29;20031;-84
2023/02/08 14:37:31;;;;;;;6.00;5.50;;;;;;;;;;4960657;29;20035;-83
2023/02/08 14:40:15;;;;;;;5.20;4.78;;;;;;;;;;4977808;29;20047;-84
2023/02/08 14:42:57;;;;;;;7.18;4.80;;;;;;;;;;4960533;29;20028;-84
2023/02/08 14:45:37;;;;;;;5.95;4.85;;;;;;;;;;4976402;29;20050;-83
2023/02/08 14:48:26;;;;;;;3.55;3.35;;;;;;;;;;4943702;29;20063;-83
2023/02/08 14:50:54;;;;;;;4.57;4.28;;;;;;;;;;4964989;29;20071;-81
2023/02/08 14:53:24;;;;;;;6.95;4.45;;;;;;;;;;4976834;29;20103;-83
2023/02/08 14:55:50;;;;;;;6.05;5.55;;;;;;;;;;4976397;28;20011;-83
2023/02/08 14:58:30;;;;;;;4.45;4.07;;;;;;;;;;4976590;29;20050;-82